Terminal Aerodrome Forecast
Issued by NWS

Home | Current Version | Previous Version | Text Only | Print | Product List | Glossary On
Versions: 1 2 3 4 5 6 7 8 9 10 11 12 13 14
000
FTUS46 KPDT 310500
TAFRDM
TAF
KRDM 310520Z 3106/0106 VRB04KT P6SM SCT120 BKN200
     FM312100 34009KT P6SM VCTS SCT100CB BKN200
     FM010300 32007KT P6SM VCSH OVC120=

USA.gov is the U.S. government's official web portal to all federal, state and local government web resources and services.